Airfield :
LOGIN :

Register | Disclaimer

   EN    FR    IT 

 










Legend :    VFR   Marginal VFR   IFR   Intensive IFR   Very Intensive IFR
Visi :
Ceiling :
>= 8 km
>= 3000ft
5 to 8 km
1000 to 3000 ft
1500m to 5 km
500 to 1000 ft
800 to 1500m
200 to 500 ft
< 800m
< 200 ft
Symbols :   Thunderstorms  Fog  Heavy snow  Heavy precipitations  Wind > 20 kt
SIGMETs :     Misc.  Thunderstorms  Icing  Turbulence  Mountain Waves  Volcanic Ashes






- Airport Elevation : 265 ft


ETSH - Holzdorf AB

CURRENT METAR :
  • 181820Z VRB03KT 9999 VCSH FEW040CB BKN120 19/17 Q1010 BLU

EXPIRED METARs :
  • 181720Z 06006KT 9999 FEW040 SCT240 19/17 Q1011 RETSRA BLU+
  • 181654Z 33011G27KT 9000 VCTS FEW040CB SCT075 BKN100 19/17 Q1011 RERA BLU
  • 181644Z 30017KT 6000 -TSRA SCT040CB SCT075 BKN100 19/17 Q1012 RERA WHT
  • 181639Z 29019KT 4000 TSRA SCT040CB BKN080 20/16 Q1013 GRN FCST CNL
  • 181632Z 30005KT 4000 TSRA SCT040CB BKN100 21/16 Q1012 GRN BLU TEMPO YLO
  • 181620Z VRB02KT 9999 -RA VCTS FEW040CB BKN100 23/17 Q1011 BLU BLU TEMPO YLO
  • 181520Z 17007KT 9999 FEW060 SCT120 BKN220 27/12 Q1012 BLU+BLU+
  • 181420Z 14005KT 9999 FEW058 BKN260 27/12 Q1012 BLU+BLU+

TAF AMD TAF ETSH
Valid from the 18 at 14:00 until the 18 at 23:00 UTC


181610Z 1814/1823 20010KT 9999 NSW SCT050 BKN300
TEMPO 1816/1823 VRB20G40KT 2000 TSRA SCT005 BKN020CB



MET'MAP, your aeronautical weather chart ! - Copyright ORBIFLY December 2007 - Disclaimer

ORBIFLY MET'MAP TEAM :

Programming & Development : Alexandra Zaïnal
Original concept : Baudouin d'Aumeries
Technical & hardware support : Manuel Goepfert
Assistance : Marc-Olivier Méhu




SOURCES & CREDITS :

   NOAA